sensor_id;sensor_type;location;lat;lon;timestamp;temperature;humidity
12229;DHT22;6177;52.402;9.800;2022-11-02T00:01:43;11.90;66.20
12229;DHT22;6177;52.402;9.800;2022-11-02T00:04:28;11.90;66.40
12229;DHT22;6177;52.402;9.800;2022-11-02T00:07:12;11.80;66.50
12229;DHT22;6177;52.402;9.800;2022-11-02T00:09:57;11.80;66.70
12229;DHT22;6177;52.402;9.800;2022-11-02T00:12:41;11.80;66.80
12229;DHT22;6177;52.402;9.800;2022-11-02T00:15:28;11.80;66.90
12229;DHT22;6177;52.402;9.800;2022-11-02T00:18:14;11.70;67.10
12229;DHT22;6177;52.402;9.800;2022-11-02T00:20:58;11.70;67.30
12229;DHT22;6177;52.402;9.800;2022-11-02T00:23:45;11.70;67.40
12229;DHT22;6177;52.402;9.800;2022-11-02T00:26:32;11.70;67.70
12229;DHT22;6177;52.402;9.800;2022-11-02T00:29:19;11.70;67.50
12229;DHT22;6177;52.402;9.800;2022-11-02T00:32:04;11.70;67.60
12229;DHT22;6177;52.402;9.800;2022-11-02T00:34:49;11.70;67.70
12229;DHT22;6177;52.402;9.800;2022-11-02T00:37:33;11.70;67.80
12229;DHT22;6177;52.402;9.800;2022-11-02T00:40:18;11.70;67.80
12229;DHT22;6177;52.402;9.800;2022-11-02T00:43:03;11.70;67.90
12229;DHT22;6177;52.402;9.800;2022-11-02T00:45:49;11.70;67.80
12229;DHT22;6177;52.402;9.800;2022-11-02T00:48:34;11.70;67.90
12229;DHT22;6177;52.402;9.800;2022-11-02T00:51:19;11.70;67.90
12229;DHT22;6177;52.402;9.800;2022-11-02T00:54:04;11.70;68.00
12229;DHT22;6177;52.402;9.800;2022-11-02T00:56:49;11.70;68.20
12229;DHT22;6177;52.402;9.800;2022-11-02T00:59:34;11.70;68.20
12229;DHT22;6177;52.402;9.800;2022-11-02T01:02:19;11.70;68.20
12229;DHT22;6177;52.402;9.800;2022-11-02T01:05:04;11.70;68.00
12229;DHT22;6177;52.402;9.800;2022-11-02T01:07:51;11.70;68.20
12229;DHT22;6177;52.402;9.800;2022-11-02T01:10:35;11.70;68.30
12229;DHT22;6177;52.402;9.800;2022-11-02T01:13:20;11.80;68.20
12229;DHT22;6177;52.402;9.800;2022-11-02T01:16:05;11.80;68.20
12229;DHT22;6177;52.402;9.800;2022-11-02T01:18:54;11.90;68.10
12229;DHT22;6177;52.402;9.800;2022-11-02T01:21:39;11.90;67.90
12229;DHT22;6177;52.402;9.800;2022-11-02T01:24:24;12.00;67.80
12229;DHT22;6177;52.402;9.800;2022-11-02T01:27:08;12.10;67.70
12229;DHT22;6177;52.402;9.800;2022-11-02T01:29:54;12.10;67.60
12229;DHT22;6177;52.402;9.800;2022-11-02T01:32:39;12.20;67.50
12229;DHT22;6177;52.402;9.800;2022-11-02T01:35:23;12.40;67.00
12229;DHT22;6177;52.402;9.800;2022-11-02T01:38:08;12.50;66.80
12229;DHT22;6177;52.402;9.800;2022-11-02T01:40:53;12.50;66.80
12229;DHT22;6177;52.402;9.800;2022-11-02T01:43:40;12.60;66.60
12229;DHT22;6177;52.402;9.800;2022-11-02T01:46:41;12.60;66.50
12229;DHT22;6177;52.402;9.800;2022-11-02T01:49:30;12.60;66.50
12229;DHT22;6177;52.402;9.800;2022-11-02T01:52:21;12.70;66.50
12229;DHT22;6177;52.402;9.800;2022-11-02T01:55:23;12.60;66.60
12229;DHT22;6177;52.402;9.800;2022-11-02T01:58:10;12.60;66.60
12229;DHT22;6177;52.402;9.800;2022-11-02T02:00:55;12.60;66.80
12229;DHT22;6177;52.402;9.800;2022-11-02T02:03:40;12.50;66.90
12229;DHT22;6177;52.402;9.800;2022-11-02T02:06:26;12.50;66.90
12229;DHT22;6177;52.402;9.800;2022-11-02T02:09:12;12.50;67.00
12229;DHT22;6177;52.402;9.800;2022-11-02T02:11:57;12.50;67.00
12229;DHT22;6177;52.402;9.800;2022-11-02T02:14:42;12.50;67.10
12229;DHT22;6177;52.402;9.800;2022-11-02T02:17:30;12.50;67.10
12229;DHT22;6177;52.402;9.800;2022-11-02T02:26:37;12.50;67.20
12229;DHT22;6177;52.402;9.800;2022-11-02T02:29:36;12.50;67.30
12229;DHT22;6177;52.402;9.800;2022-11-02T02:32:52;12.50;67.30
12229;DHT22;6177;52.402;9.800;2022-11-02T02:35:46;12.40;67.30
12229;DHT22;6177;52.402;9.800;2022-11-02T02:38:43;12.50;67.50
12229;DHT22;6177;52.402;9.800;2022-11-02T02:41:40;12.50;67.40
12229;DHT22;6177;52.402;9.800;2022-11-02T02:44:30;12.50;67.30
12229;DHT22;6177;52.402;9.800;2022-11-02T02:47:18;12.50;67.40
12229;DHT22;6177;52.402;9.800;2022-11-02T02:50:19;12.50;67.80
12229;DHT22;6177;52.402;9.800;2022-11-02T02:53:06;12.50;67.40
12229;DHT22;6177;52.402;9.800;2022-11-02T02:55:51;12.50;67.40
12229;DHT22;6177;52.402;9.800;2022-11-02T02:58:49;12.60;67.40
12229;DHT22;6177;52.402;9.800;2022-11-02T03:01:39;12.60;67.30
12229;DHT22;6177;52.402;9.800;2022-11-02T03:04:26;12.60;67.10
12229;DHT22;6177;52.402;9.800;2022-11-02T03:07:14;12.60;67.10
12229;DHT22;6177;52.402;9.800;2022-11-02T03:10:19;12.70;67.20
12229;DHT22;6177;52.402;9.800;2022-11-02T03:16:26;12.70;67.20
12229;DHT22;6177;52.402;9.800;2022-11-02T03:25:27;12.50;67.60
12229;DHT22;6177;52.402;9.800;2022-11-02T03:31:46;12.50;67.80
12229;DHT22;6177;52.402;9.800;2022-11-02T03:34:48;12.60;67.70
12229;DHT22;6177;52.402;9.800;2022-11-02T03:37:41;12.80;67.30
12229;DHT22;6177;52.402;9.800;2022-11-02T03:40:32;12.90;67.30
12229;DHT22;6177;52.402;9.800;2022-11-02T03:43:19;13.00;67.00
12229;DHT22;6177;52.402;9.800;2022-11-02T03:46:08;13.00;67.00
12229;DHT22;6177;52.402;9.800;2022-11-02T03:48:55;13.10;66.90
12229;DHT22;6177;52.402;9.800;2022-11-02T03:51:42;13.20;67.00
12229;DHT22;6177;52.402;9.800;2022-11-02T03:54:44;13.20;67.00
12229;DHT22;6177;52.402;9.800;2022-11-02T03:57:49;13.10;67.20
12229;DHT22;6177;52.402;9.800;2022-11-02T04:00:37;13.10;67.50
12229;DHT22;6177;52.402;9.800;2022-11-02T04:03:29;12.90;67.80
12229;DHT22;6177;52.402;9.800;2022-11-02T04:06:14;12.80;68.30
12229;DHT22;6177;52.402;9.800;2022-11-02T04:08:59;12.80;68.60
12229;DHT22;6177;52.402;9.800;2022-11-02T04:11:44;12.80;68.70
12229;DHT22;6177;52.402;9.800;2022-11-02T04:14:48;12.80;68.70
12229;DHT22;6177;52.402;9.800;2022-11-02T04:17:35;12.70;69.00
12229;DHT22;6177;52.402;9.800;2022-11-02T04:20:39;12.70;69.00
12229;DHT22;6177;52.402;9.800;2022-11-02T04:23:23;12.90;68.60
12229;DHT22;6177;52.402;9.800;2022-11-02T04:26:26;12.80;68.70
12229;DHT22;6177;52.402;9.800;2022-11-02T04:29:11;12.90;68.40
12229;DHT22;6177;52.402;9.800;2022-11-02T04:31:56;12.80;68.60
12229;DHT22;6177;52.402;9.800;2022-11-02T04:34:41;12.60;68.90
12229;DHT22;6177;52.402;9.800;2022-11-02T04:37:26;12.60;68.90
12229;DHT22;6177;52.402;9.800;2022-11-02T04:40:30;12.60;68.80
12229;DHT22;6177;52.402;9.800;2022-11-02T04:43:15;12.60;68.60
12229;DHT22;6177;52.402;9.800;2022-11-02T04:46:00;12.60;68.50
12229;DHT22;6177;52.402;9.800;2022-11-02T04:48:45;12.70;68.20
12229;DHT22;6177;52.402;9.800;2022-11-02T04:51:30;12.70;68.20
12229;DHT22;6177;52.402;9.800;2022-11-02T04:54:15;12.60;68.40
12229;DHT22;6177;52.402;9.800;2022-11-02T04:57:01;12.50;68.60
12229;DHT22;6177;52.402;9.800;2022-11-02T04:59:47;12.60;68.60
12229;DHT22;6177;52.402;9.800;2022-11-02T05:02:32;12.50;68.70
12229;DHT22;6177;52.402;9.800;2022-11-02T05:05:17;12.50;68.50
12229;DHT22;6177;52.402;9.800;2022-11-02T05:08:03;12.50;68.60
12229;DHT22;6177;52.402;9.800;2022-11-02T05:10:47;12.60;68.40
12229;DHT22;6177;52.402;9.800;2022-11-02T05:13:32;12.50;68.60
12229;DHT22;6177;52.402;9.800;2022-11-02T05:16:18;12.50;68.70
12229;DHT22;6177;52.402;9.800;2022-11-02T05:19:03;12.40;68.90
12229;DHT22;6177;52.402;9.800;2022-11-02T05:21:48;12.40;69.00
12229;DHT22;6177;52.402;9.800;2022-11-02T05:24:32;12.40;69.00
12229;DHT22;6177;52.402;9.800;2022-11-02T05:27:18;12.40;69.00
12229;DHT22;6177;52.402;9.800;2022-11-02T05:30:05;12.30;69.30
12229;DHT22;6177;52.402;9.800;2022-11-02T05:32:55;12.30;69.40
12229;DHT22;6177;52.402;9.800;2022-11-02T05:35:40;12.20;69.70
12229;DHT22;6177;52.402;9.800;2022-11-02T05:38:25;12.20;69.90
12229;DHT22;6177;52.402;9.800;2022-11-02T05:41:11;12.30;69.80
12229;DHT22;6177;52.402;9.800;2022-11-02T05:43:57;12.20;69.70
12229;DHT22;6177;52.402;9.800;2022-11-02T05:46:45;12.20;69.90
12229;DHT22;6177;52.402;9.800;2022-11-02T05:49:29;12.20;70.10
12229;DHT22;6177;52.402;9.800;2022-11-02T05:52:14;12.10;70.20
12229;DHT22;6177;52.402;9.800;2022-11-02T05:54:59;12.10;70.30
12229;DHT22;6177;52.402;9.800;2022-11-02T05:57:49;12.10;70.50
12229;DHT22;6177;52.402;9.800;2022-11-02T06:00:34;12.20;70.60
12229;DHT22;6177;52.402;9.800;2022-11-02T06:03:19;12.30;70.20
12229;DHT22;6177;52.402;9.800;2022-11-02T06:06:06;12.20;70.30
12229;DHT22;6177;52.402;9.800;2022-11-02T06:08:51;12.20;70.70
12229;DHT22;6177;52.402;9.800;2022-11-02T06:11:35;12.10;70.60
12229;DHT22;6177;52.402;9.800;2022-11-02T06:14:20;12.00;70.70
12229;DHT22;6177;52.402;9.800;2022-11-02T06:17:04;12.00;70.90
12229;DHT22;6177;52.402;9.800;2022-11-02T06:19:49;12.00;71.00
12229;DHT22;6177;52.402;9.800;2022-11-02T06:22:40;12.00;70.90
12229;DHT22;6177;52.402;9.800;2022-11-02T06:25:25;12.00;71.10
12229;DHT22;6177;52.402;9.800;2022-11-02T06:28:09;11.90;71.30
12229;DHT22;6177;52.402;9.800;2022-11-02T06:30:54;11.90;71.40
12229;DHT22;6177;52.402;9.800;2022-11-02T06:33:38;11.90;71.50
12229;DHT22;6177;52.402;9.800;2022-11-02T06:36:23;12.00;71.50
12229;DHT22;6177;52.402;9.800;2022-11-02T06:39:07;11.90;71.60
12229;DHT22;6177;52.402;9.800;2022-11-02T06:41:52;11.90;71.70
12229;DHT22;6177;52.402;9.800;2022-11-02T06:44:37;12.10;71.20
12229;DHT22;6177;52.402;9.800;2022-11-02T06:47:21;12.10;71.20
12229;DHT22;6177;52.402;9.800;2022-11-02T06:50:06;12.10;71.30
12229;DHT22;6177;52.402;9.800;2022-11-02T06:52:51;12.20;71.00
12229;DHT22;6177;52.402;9.800;2022-11-02T06:55:35;12.30;70.80
12229;DHT22;6177;52.402;9.800;2022-11-02T06:58:20;12.20;71.00
12229;DHT22;6177;52.402;9.800;2022-11-02T07:01:07;12.30;70.90
12229;DHT22;6177;52.402;9.800;2022-11-02T07:03:51;12.20;71.10
12229;DHT22;6177;52.402;9.800;2022-11-02T07:06:36;12.30;70.70
12229;DHT22;6177;52.402;9.800;2022-11-02T07:09:21;12.40;70.60
12229;DHT22;6177;52.402;9.800;2022-11-02T07:12:05;12.40;70.40
12229;DHT22;6177;52.402;9.800;2022-11-02T07:14:50;12.40;70.40
12229;DHT22;6177;52.402;9.800;2022-11-02T07:17:38;12.40;70.40
12229;DHT22;6177;52.402;9.800;2022-11-02T07:20:23;12.40;70.40
12229;DHT22;6177;52.402;9.800;2022-11-02T07:23:08;12.40;70.50
12229;DHT22;6177;52.402;9.800;2022-11-02T07:25:52;12.50;70.60
12229;DHT22;6177;52.402;9.800;2022-11-02T07:28:37;12.70;70.10
12229;DHT22;6177;52.402;9.800;2022-11-02T07:31:21;12.90;69.60
12229;DHT22;6177;52.402;9.800;2022-11-02T07:34:06;13.10;69.10
12229;DHT22;6177;52.402;9.800;2022-11-02T07:36:51;13.10;68.70
12229;DHT22;6177;52.402;9.800;2022-11-02T07:39:35;13.10;68.80
12229;DHT22;6177;52.402;9.800;2022-11-02T07:42:20;13.30;68.40
12229;DHT22;6177;52.402;9.800;2022-11-02T07:45:07;13.30;68.40
12229;DHT22;6177;52.402;9.800;2022-11-02T07:47:52;13.40;68.20
12229;DHT22;6177;52.402;9.800;2022-11-02T07:50:36;13.30;68.30
12229;DHT22;6177;52.402;9.800;2022-11-02T07:53:21;13.30;68.50
12229;DHT22;6177;52.402;9.800;2022-11-02T07:56:06;13.40;68.10
12229;DHT22;6177;52.402;9.800;2022-11-02T07:58:51;13.60;67.40
12229;DHT22;6177;52.402;9.800;2022-11-02T08:01:35;13.70;67.10
12229;DHT22;6177;52.402;9.800;2022-11-02T08:04:20;13.80;66.60
12229;DHT22;6177;52.402;9.800;2022-11-02T08:07:04;13.90;66.20
12229;DHT22;6177;52.402;9.800;2022-11-02T08:09:49;14.00;66.00
12229;DHT22;6177;52.402;9.800;2022-11-02T08:12:34;14.20;64.90
12229;DHT22;6177;52.402;9.800;2022-11-02T08:15:19;14.30;64.70
12229;DHT22;6177;52.402;9.800;2022-11-02T08:18:15;14.30;64.20
12229;DHT22;6177;52.402;9.800;2022-11-02T08:20:59;14.30;64.40
12229;DHT22;6177;52.402;9.800;2022-11-02T08:23:44;14.40;64.00
12229;DHT22;6177;52.402;9.800;2022-11-02T08:26:28;14.50;63.70
12229;DHT22;6177;52.402;9.800;2022-11-02T08:29:13;14.50;63.70
12229;DHT22;6177;52.402;9.800;2022-11-02T08:31:57;14.60;63.50
12229;DHT22;6177;52.402;9.800;2022-11-02T08:34:42;14.70;62.80
12229;DHT22;6177;52.402;9.800;2022-11-02T08:37:27;14.60;62.70
12229;DHT22;6177;52.402;9.800;2022-11-02T08:40:11;14.70;62.80
12229;DHT22;6177;52.402;9.800;2022-11-02T08:43:00;14.60;62.80
12229;DHT22;6177;52.402;9.800;2022-11-02T08:45:46;14.60;62.80
12229;DHT22;6177;52.402;9.800;2022-11-02T08:48:30;14.70;62.40
12229;DHT22;6177;52.402;9.800;2022-11-02T08:51:15;14.60;62.80
12229;DHT22;6177;52.402;9.800;2022-11-02T08:54:00;14.60;62.50
12229;DHT22;6177;52.402;9.800;2022-11-02T08:56:44;14.50;62.40
12229;DHT22;6177;52.402;9.800;2022-11-02T08:59:29;14.70;61.70
12229;DHT22;6177;52.402;9.800;2022-11-02T09:02:14;14.70;61.90
12229;DHT22;6177;52.402;9.800;2022-11-02T09:04:58;14.80;61.90
12229;DHT22;6177;52.402;9.800;2022-11-02T09:07:43;14.80;61.90
12229;DHT22;6177;52.402;9.800;2022-11-02T09:10:29;14.90;61.80
12229;DHT22;6177;52.402;9.800;2022-11-02T09:13:14;14.90;61.90
12229;DHT22;6177;52.402;9.800;2022-11-02T09:16:01;15.00;61.50
12229;DHT22;6177;52.402;9.800;2022-11-02T09:18:46;15.10;61.20
12229;DHT22;6177;52.402;9.800;2022-11-02T09:21:30;15.20;60.80
12229;DHT22;6177;52.402;9.800;2022-11-02T09:24:15;15.10;61.00
12229;DHT22;6177;52.402;9.800;2022-11-02T09:26:59;15.00;61.10
12229;DHT22;6177;52.402;9.800;2022-11-02T09:32:29;15.20;60.40
12229;DHT22;6177;52.402;9.800;2022-11-02T09:35:16;15.20;60.60
12229;DHT22;6177;52.402;9.800;2022-11-02T09:38:01;15.20;60.70
12229;DHT22;6177;52.402;9.800;2022-11-02T09:43:52;15.40;60.40
12229;DHT22;6177;52.402;9.800;2022-11-02T09:46:42;15.60;58.60
12229;DHT22;6177;52.402;9.800;2022-11-02T09:49:28;15.50;59.10
12229;DHT22;6177;52.402;9.800;2022-11-02T09:52:23;15.50;58.00
12229;DHT22;6177;52.402;9.800;2022-11-02T09:55:23;15.50;58.00
12229;DHT22;6177;52.402;9.800;2022-11-02T09:58:16;15.60;57.90
12229;DHT22;6177;52.402;9.800;2022-11-02T10:01:12;15.50;57.90
12229;DHT22;6177;52.402;9.800;2022-11-02T10:04:16;15.60;57.50
12229;DHT22;6177;52.402;9.800;2022-11-02T10:07:13;15.80;54.60
12229;DHT22;6177;52.402;9.800;2022-11-02T10:10:14;15.80;54.60
12229;DHT22;6177;52.402;9.800;2022-11-02T10:15:55;15.90;53.20
12229;DHT22;6177;52.402;9.800;2022-11-02T10:18:41;16.10;51.50
12229;DHT22;6177;52.402;9.800;2022-11-02T10:21:31;16.00;51.10
12229;DHT22;6177;52.402;9.800;2022-11-02T10:24:35;16.00;51.60
12229;DHT22;6177;52.402;9.800;2022-11-02T10:27:25;16.00;51.50
12229;DHT22;6177;52.402;9.800;2022-11-02T10:30:17;16.00;50.00
12229;DHT22;6177;52.402;9.800;2022-11-02T10:33:11;15.90;50.80
12229;DHT22;6177;52.402;9.800;2022-11-02T10:39:19;15.90;50.30
12229;DHT22;6177;52.402;9.800;2022-11-02T10:51:13;16.10;49.10
12229;DHT22;6177;52.402;9.800;2022-11-02T10:53:57;16.10;48.30
12229;DHT22;6177;52.402;9.800;2022-11-02T10:56:42;16.10;48.50
12229;DHT22;6177;52.402;9.800;2022-11-02T10:59:30;16.20;47.50
12229;DHT22;6177;52.402;9.800;2022-11-02T11:02:16;16.10;47.70
12229;DHT22;6177;52.402;9.800;2022-11-02T11:05:11;16.00;47.80
12229;DHT22;6177;52.402;9.800;2022-11-02T11:07:58;15.90;48.20
12229;DHT22;6177;52.402;9.800;2022-11-02T11:10:43;15.90;47.80
12229;DHT22;6177;52.402;9.800;2022-11-02T11:13:29;15.90;46.90
12229;DHT22;6177;52.402;9.800;2022-11-02T11:16:13;15.90;47.50
12229;DHT22;6177;52.402;9.800;2022-11-02T11:18:59;15.80;48.50
12229;DHT22;6177;52.402;9.800;2022-11-02T11:21:44;16.00;46.70
12229;DHT22;6177;52.402;9.800;2022-11-02T11:24:31;15.90;47.10
12229;DHT22;6177;52.402;9.800;2022-11-02T11:27:20;15.90;46.10
12229;DHT22;6177;52.402;9.800;2022-11-02T11:30:23;15.90;47.30
12229;DHT22;6177;52.402;9.800;2022-11-02T11:33:15;16.20;46.80
12229;DHT22;6177;52.402;9.800;2022-11-02T11:36:00;16.30;46.00
12229;DHT22;6177;52.402;9.800;2022-11-02T11:38:46;16.40;45.30
12229;DHT22;6177;52.402;9.800;2022-11-02T11:41:32;16.50;45.20
12229;DHT22;6177;52.402;9.800;2022-11-02T11:44:17;16.40;46.40
12229;DHT22;6177;52.402;9.800;2022-11-02T11:47:02;16.30;46.20
12229;DHT22;6177;52.402;9.800;2022-11-02T11:49:48;16.20;46.40
12229;DHT22;6177;52.402;9.800;2022-11-02T11:52:32;16.30;46.60
12229;DHT22;6177;52.402;9.800;2022-11-02T11:55:28;16.10;47.30
12229;DHT22;6177;52.402;9.800;2022-11-02T12:03:59;16.60;45.00
12229;DHT22;6177;52.402;9.800;2022-11-02T12:13:19;16.50;45.00
12229;DHT22;6177;52.402;9.800;2022-11-02T12:28:40;16.40;45.90
12229;DHT22;6177;52.402;9.800;2022-11-02T12:31:39;16.60;43.90
12229;DHT22;6177;52.402;9.800;2022-11-02T12:44:11;17.90;41.60
12229;DHT22;6177;52.402;9.800;2022-11-02T12:53:35;17.70;41.50
12229;DHT22;6177;52.402;9.800;2022-11-02T12:56:32;17.90;41.10
12229;DHT22;6177;52.402;9.800;2022-11-02T12:59:27;18.00;41.10
12229;DHT22;6177;52.402;9.800;2022-11-02T13:03:15;17.80;41.20
12229;DHT22;6177;52.402;9.800;2022-11-02T13:05:43;17.80;41.70
12229;DHT22;6177;52.402;9.800;2022-11-02T13:08:39;18.20;40.40
12229;DHT22;6177;52.402;9.800;2022-11-02T13:11:36;18.30;39.30
12229;DHT22;6177;52.402;9.800;2022-11-02T13:14:21;18.30;39.80
12229;DHT22;6177;52.402;9.800;2022-11-02T13:20:27;18.70;39.50
12229;DHT22;6177;52.402;9.800;2022-11-02T13:26:35;18.80;38.70
12229;DHT22;6177;52.402;9.800;2022-11-02T13:29:32;18.90;38.40
12229;DHT22;6177;52.402;9.800;2022-11-02T13:32:37;19.00;38.90
12229;DHT22;6177;52.402;9.800;2022-11-02T13:35:32;19.10;38.00
12229;DHT22;6177;52.402;9.800;2022-11-02T13:38:28;18.80;38.30
12229;DHT22;6177;52.402;9.800;2022-11-02T13:50:13;17.50;41.40
12229;DHT22;6177;52.402;9.800;2022-11-02T13:53:03;17.80;40.70
12229;DHT22;6177;52.402;9.800;2022-11-02T13:55:57;17.90;40.70
12229;DHT22;6177;52.402;9.800;2022-11-02T13:58:46;18.40;40.10
12229;DHT22;6177;52.402;9.800;2022-11-02T14:01:34;18.60;39.00
12229;DHT22;6177;52.402;9.800;2022-11-02T14:04:21;18.30;38.70
12229;DHT22;6177;52.402;9.800;2022-11-02T14:07:25;18.10;38.70
12229;DHT22;6177;52.402;9.800;2022-11-02T14:12:55;17.60;39.30
12229;DHT22;6177;52.402;9.800;2022-11-02T14:15:41;17.20;40.10
12229;DHT22;6177;52.402;9.800;2022-11-02T14:18:26;16.80;40.90
12229;DHT22;6177;52.402;9.800;2022-11-02T14:30:03;17.20;41.20
12229;DHT22;6177;52.402;9.800;2022-11-02T14:33:04;17.40;40.30
12229;DHT22;6177;52.402;9.800;2022-11-02T14:39:34;17.40;40.80
12229;DHT22;6177;52.402;9.800;2022-11-02T14:45:32;17.20;41.50
12229;DHT22;6177;52.402;9.800;2022-11-02T14:48:20;17.10;41.60
12229;DHT22;6177;52.402;9.800;2022-11-02T14:51:13;17.10;42.20
12229;DHT22;6177;52.402;9.800;2022-11-02T14:54:04;17.20;41.90
12229;DHT22;6177;52.402;9.800;2022-11-02T14:57:03;17.10;42.30
12229;DHT22;6177;52.402;9.800;2022-11-02T14:59:51;17.00;42.30
12229;DHT22;6177;52.402;9.800;2022-11-02T15:02:38;16.90;42.90
12229;DHT22;6177;52.402;9.800;2022-11-02T15:05:28;16.70;43.00
12229;DHT22;6177;52.402;9.800;2022-11-02T15:10:58;16.30;44.30
12229;DHT22;6177;52.402;9.800;2022-11-02T15:25:51;15.40;46.60
12229;DHT22;6177;52.402;9.800;2022-11-02T15:28:36;15.20;47.20
12229;DHT22;6177;52.402;9.800;2022-11-02T15:31:23;15.10;47.50
12229;DHT22;6177;52.402;9.800;2022-11-02T15:34:14;15.00;47.60
12229;DHT22;6177;52.402;9.800;2022-11-02T15:37:02;14.90;48.10
12229;DHT22;6177;52.402;9.800;2022-11-02T15:40:20;14.70;48.70
12229;DHT22;6177;52.402;9.800;2022-11-02T15:49:19;14.20;50.60
12229;DHT22;6177;52.402;9.800;2022-11-02T15:55:32;14.00;51.30
12229;DHT22;6177;52.402;9.800;2022-11-02T15:58:44;13.80;51.70
12229;DHT22;6177;52.402;9.800;2022-11-02T16:01:31;13.70;52.10
12229;DHT22;6177;52.402;9.800;2022-11-02T16:04:19;13.70;51.70
12229;DHT22;6177;52.402;9.800;2022-11-02T16:07:04;13.60;52.10
12229;DHT22;6177;52.402;9.800;2022-11-02T16:09:50;13.60;52.00
12229;DHT22;6177;52.402;9.800;2022-11-02T16:12:35;13.50;52.20
12229;DHT22;6177;52.402;9.800;2022-11-02T16:15:20;13.40;52.40
12229;DHT22;6177;52.402;9.800;2022-11-02T16:18:04;13.30;52.80
12229;DHT22;6177;52.402;9.800;2022-11-02T16:20:49;13.30;52.70
12229;DHT22;6177;52.402;9.800;2022-11-02T16:23:36;13.20;52.80
12229;DHT22;6177;52.402;9.800;2022-11-02T16:26:24;13.20;53.20
12229;DHT22;6177;52.402;9.800;2022-11-02T16:29:10;13.20;53.10
12229;DHT22;6177;52.402;9.800;2022-11-02T16:31:55;13.10;53.60
12229;DHT22;6177;52.402;9.800;2022-11-02T16:34:40;13.00;54.10
12229;DHT22;6177;52.402;9.800;2022-11-02T16:37:25;12.80;54.60
12229;DHT22;6177;52.402;9.800;2022-11-02T16:40:19;12.70;55.40
12229;DHT22;6177;52.402;9.800;2022-11-02T16:43:04;12.60;55.90
12229;DHT22;6177;52.402;9.800;2022-11-02T16:45:49;12.50;56.30
12229;DHT22;6177;52.402;9.800;2022-11-02T16:48:34;12.50;56.80
12229;DHT22;6177;52.402;9.800;2022-11-02T16:51:19;12.40;57.20
12229;DHT22;6177;52.402;9.800;2022-11-02T17:02:42;12.20;58.80
12229;DHT22;6177;52.402;9.800;2022-11-02T17:05:27;12.10;59.20
12229;DHT22;6177;52.402;9.800;2022-11-02T17:08:26;12.00;59.40
12229;DHT22;6177;52.402;9.800;2022-11-02T17:11:17;12.00;59.70
12229;DHT22;6177;52.402;9.800;2022-11-02T17:14:01;11.90;60.00
12229;DHT22;6177;52.402;9.800;2022-11-02T17:17:07;11.80;60.20
12229;DHT22;6177;52.402;9.800;2022-11-02T17:22:57;11.70;60.60
12229;DHT22;6177;52.402;9.800;2022-11-02T17:25:42;11.60;60.80
12229;DHT22;6177;52.402;9.800;2022-11-02T17:34:12;11.60;61.10
12229;DHT22;6177;52.402;9.800;2022-11-02T17:36:58;11.60;61.10
12229;DHT22;6177;52.402;9.800;2022-11-02T17:39:42;11.60;61.10
12229;DHT22;6177;52.402;9.800;2022-11-02T17:42:28;11.60;61.10
12229;DHT22;6177;52.402;9.800;2022-11-02T17:45:36;11.50;61.30
12229;DHT22;6177;52.402;9.800;2022-11-02T17:48:21;11.40;61.40
12229;DHT22;6177;52.402;9.800;2022-11-02T17:51:10;11.30;61.60
12229;DHT22;6177;52.402;9.800;2022-11-02T17:53:58;11.20;61.70
12229;DHT22;6177;52.402;9.800;2022-11-02T17:56:43;11.20;61.90
12229;DHT22;6177;52.402;9.800;2022-11-02T17:59:27;11.10;62.10
12229;DHT22;6177;52.402;9.800;2022-11-02T18:02:14;11.10;62.20
12229;DHT22;6177;52.402;9.800;2022-11-02T18:04:58;11.00;62.40
12229;DHT22;6177;52.402;9.800;2022-11-02T18:07:43;10.90;62.50
12229;DHT22;6177;52.402;9.800;2022-11-02T18:10:36;10.90;62.60
12229;DHT22;6177;52.402;9.800;2022-11-02T18:13:22;10.90;62.80
12229;DHT22;6177;52.402;9.800;2022-11-02T18:16:07;10.90;62.90
12229;DHT22;6177;52.402;9.800;2022-11-02T18:18:51;10.70;63.00
12229;DHT22;6177;52.402;9.800;2022-11-02T18:21:36;10.70;63.10
12229;DHT22;6177;52.402;9.800;2022-11-02T18:24:22;10.60;63.30
12229;DHT22;6177;52.402;9.800;2022-11-02T18:27:06;10.60;63.50
12229;DHT22;6177;52.402;9.800;2022-11-02T18:29:51;10.50;63.70
12229;DHT22;6177;52.402;9.800;2022-11-02T18:32:37;10.50;63.80
12229;DHT22;6177;52.402;9.800;2022-11-02T18:35:23;10.50;64.00
12229;DHT22;6177;52.402;9.800;2022-11-02T18:38:07;10.40;64.10
12229;DHT22;6177;52.402;9.800;2022-11-02T18:40:52;10.40;64.30
12229;DHT22;6177;52.402;9.800;2022-11-02T18:43:36;10.40;64.40
12229;DHT22;6177;52.402;9.800;2022-11-02T18:46:21;10.30;64.40
12229;DHT22;6177;52.402;9.800;2022-11-02T18:49:06;10.30;64.50
12229;DHT22;6177;52.402;9.800;2022-11-02T18:51:51;10.30;64.70
12229;DHT22;6177;52.402;9.800;2022-11-02T18:54:35;10.30;64.80
12229;DHT22;6177;52.402;9.800;2022-11-02T18:57:20;10.30;64.90
12229;DHT22;6177;52.402;9.800;2022-11-02T19:00:05;10.10;64.90
12229;DHT22;6177;52.402;9.800;2022-11-02T19:02:50;10.10;65.10
12229;DHT22;6177;52.402;9.800;2022-11-02T19:05:34;10.00;65.40
12229;DHT22;6177;52.402;9.800;2022-11-02T19:08:38;9.90;65.60
12229;DHT22;6177;52.402;9.800;2022-11-02T19:11:41;9.80;65.70
12229;DHT22;6177;52.402;9.800;2022-11-02T19:14:28;9.70;66.10
12229;DHT22;6177;52.402;9.800;2022-11-02T19:17:13;9.70;66.40
12229;DHT22;6177;52.402;9.800;2022-11-02T19:19:58;9.60;66.60
12229;DHT22;6177;52.402;9.800;2022-11-02T19:22:43;9.60;66.80
12229;DHT22;6177;52.402;9.800;2022-11-02T19:25:27;9.60;66.90
12229;DHT22;6177;52.402;9.800;2022-11-02T19:28:12;9.50;67.00
12229;DHT22;6177;52.402;9.800;2022-11-02T19:30:56;9.50;67.10
12229;DHT22;6177;52.402;9.800;2022-11-02T19:33:41;9.50;67.30
12229;DHT22;6177;52.402;9.800;2022-11-02T19:36:26;9.40;67.40
12229;DHT22;6177;52.402;9.800;2022-11-02T19:39:10;9.40;67.60
12229;DHT22;6177;52.402;9.800;2022-11-02T19:41:55;9.40;67.60
12229;DHT22;6177;52.402;9.800;2022-11-02T19:44:40;9.40;67.70
12229;DHT22;6177;52.402;9.800;2022-11-02T19:47:24;9.40;67.70
12229;DHT22;6177;52.402;9.800;2022-11-02T19:50:10;9.30;67.70
12229;DHT22;6177;52.402;9.800;2022-11-02T19:52:55;9.40;67.70
12229;DHT22;6177;52.402;9.800;2022-11-02T19:55:40;9.40;67.70
12229;DHT22;6177;52.402;9.800;2022-11-02T19:58:24;9.40;67.70
12229;DHT22;6177;52.402;9.800;2022-11-02T20:01:46;9.40;67.60
12229;DHT22;6177;52.402;9.800;2022-11-02T20:04:25;9.50;67.60
12229;DHT22;6177;52.402;9.800;2022-11-02T20:07:09;9.40;67.50
12229;DHT22;6177;52.402;9.800;2022-11-02T20:09:54;9.40;67.50
12229;DHT22;6177;52.402;9.800;2022-11-02T20:12:41;9.50;67.60
12229;DHT22;6177;52.402;9.800;2022-11-02T20:15:25;9.50;67.40
12229;DHT22;6177;52.402;9.800;2022-11-02T20:18:09;9.50;67.40
12229;DHT22;6177;52.402;9.800;2022-11-02T20:21:04;9.50;67.30
12229;DHT22;6177;52.402;9.800;2022-11-02T20:23:49;9.50;67.30
12229;DHT22;6177;52.402;9.800;2022-11-02T20:26:35;9.50;67.30
12229;DHT22;6177;52.402;9.800;2022-11-02T20:29:20;9.50;67.20
12229;DHT22;6177;52.402;9.800;2022-11-02T20:32:05;9.50;67.20
12229;DHT22;6177;52.402;9.800;2022-11-02T20:34:53;9.50;67.10
12229;DHT22;6177;52.402;9.800;2022-11-02T20:37:38;9.50;67.10